Time;durP1;ratioP1;P1;durP2;ratioP2;P2;SDS_P1;SDS_P2;PMS_P1;PMS_P2;Temp;Humidity;BMP_temperature;BMP_pressure;BME280_temperature;BME280_humidity;BME280_pressure;Samples;Min_cycle;Max_cycle;Signal;HPM_P1;HPM_P2
2022/02/12 00:04:45;;;;;;;17.1;19.9;;;;;;;2.4;76.7;99910;;;;
2022/02/12 00:15:45;;;;;;;17.1;19.9;;;;;;;2.4;76.6;99910;;;;
2022/02/12 00:25:45;;;;;;;20.4;25.6;;;;;;;2.3;76.2;99930;;;;
2022/02/12 00:35:45;;;;;;;20.4;25.6;;;;;;;2.3;76.1;99940;;;;
2022/02/12 00:46:45;;;;;;;20.4;25.6;;;;;;;2.4;76.1;99960;;;;
2022/02/12 00:56:45;;;;;;;19.6;23.2;;;;;;;2.4;76.6;99960;;;;
2022/02/12 01:06:45;;;;;;;19.6;23.2;;;;;;;2.3;76.8;99960;;;;
2022/02/12 01:16:45;;;;;;;19.6;23.2;;;;;;;2.3;77;99960;;;;
2022/02/12 01:27:45;;;;;;;18.5;22.5;;;;;;;2.4;77.1;99960;;;;
2022/02/12 01:37:45;;;;;;;18.5;22.5;;;;;;;2.4;77.2;99970;;;;
2022/02/12 01:48:45;;;;;;;20.8;27.1;;;;;;;2.3;77.5;99990;;;;
2022/02/12 01:58:45;;;;;;;20.8;27.1;;;;;;;2.3;77.4;99970;;;;
2022/02/12 02:08:45;;;;;;;20.8;27.1;;;;;;;2.2;77.9;99990;;;;
2022/02/12 02:19:45;;;;;;;20;29.3;;;;;;;2.2;78;100000;;;;
2022/02/12 02:29:45;;;;;;;20;29.3;;;;;;;2.4;77.6;100010;;;;
2022/02/12 02:39:45;;;;;;;20;29.3;;;;;;;2.4;77.4;100010;;;;
2022/02/12 03:01:52;;;;;;;17.9;25.5;;;;;;;2.2;79.5;100070;;;;
2022/02/12 03:12:45;;;;;;;17.9;25.5;;;;;;;2.1;80.2;100080;;;;
2022/02/12 03:23:45;;;;;;;23.1;28.2;;;;;;;2;81.1;100100;;;;
2022/02/12 03:34:46;;;;;;;23.1;28.2;;;;;;;1.9;81.4;100120;;;;
2022/02/12 03:44:45;;;;;;;23.1;28.2;;;;;;;1.9;81.3;100140;;;;
2022/02/12 03:54:45;;;;;;;21;26.3;;;;;;;1.8;80.9;100170;;;;
2022/02/12 04:04:45;;;;;;;21;26.3;;;;;;;1.6;80.6;100180;;;;
2022/02/12 04:14:45;;;;;;;21;26.3;;;;;;;1.5;79.1;100180;;;;
2022/02/12 04:24:45;;;;;;;17.7;21.5;;;;;;;1.3;77.1;100210;;;;
2022/02/12 04:34:45;;;;;;;17.7;21.5;;;;;;;1.1;73.9;100220;;;;
2022/02/12 04:44:45;;;;;;;17.7;21.5;;;;;;;0.9;73.7;100250;;;;
2022/02/12 04:55:45;;;;;;;7.9;11.1;;;;;;;0.7;73.1;100270;;;;
2022/02/12 05:05:45;;;;;;;7.9;11.1;;;;;;;0.5;72;100280;;;;
2022/02/12 05:15:45;;;;;;;7.9;11.1;;;;;;;0.3;74.1;100280;;;;
2022/02/12 05:25:45;;;;;;;13.5;19.8;;;;;;;0.1;73.9;100300;;;;
2022/02/12 05:36:45;;;;;;;13.5;19.8;;;;;;;0.1;74.1;100310;;;;
2022/02/12 05:47:45;;;;;;;13.2;19.3;;;;;;;0.2;73.8;100340;;;;
2022/02/12 05:57:45;;;;;;;13.2;19.3;;;;;;;0.2;71.3;100350;;;;
2022/02/12 06:07:45;;;;;;;13.2;19.3;;;;;;;0.1;72;100360;;;;
2022/02/12 06:18:45;;;;;;;10.3;14.6;;;;;;;0;72.9;100370;;;;
2022/02/12 06:28:45;;;;;;;10.3;14.6;;;;;;;-0.2;73.7;100390;;;;
2022/02/12 06:38:45;;;;;;;10.3;14.6;;;;;;;-0.2;74.4;100400;;;;
2022/02/12 06:48:45;;;;;;;10.5;14.2;;;;;;;-0.2;75;100420;;;;
2022/02/12 06:58:45;;;;;;;10.5;14.2;;;;;;;-0.1;75.5;100430;;;;
2022/02/12 07:09:46;;;;;;;10.5;14.2;;;;;;;0.1;75.4;100440;;;;
2022/02/12 07:20:46;;;;;;;13.5;18.9;;;;;;;0.3;74.5;100460;;;;
2022/02/12 07:30:46;;;;;;;13.5;18.9;;;;;;;0.5;72.9;100470;;;;
2022/02/12 07:41:45;;;;;;;13.5;18.9;;;;;;;0.7;72;100480;;;;
2022/02/12 07:51:45;;;;;;;9.3;13;;;;;;;0.8;71.4;100500;;;;
2022/02/12 08:02:46;;;;;;;9.3;13;;;;;;;1.5;70.8;100510;;;;
2022/02/12 08:13:45;;;;;;;9.3;13;;;;;;;2;68.8;100530;;;;
2022/02/12 08:24:45;;;;;;;9.6;13.5;;;;;;;2.1;66.5;100550;;;;
2022/02/12 08:34:45;;;;;;;9.6;13.5;;;;;;;2.6;63.7;100570;;;;
2022/02/12 08:45:45;;;;;;;9.6;13.5;;;;;;;2.9;64.6;100580;;;;
2022/02/12 08:56:45;;;;;;;7.2;11.1;;;;;;;2.4;64.4;100590;;;;
2022/02/12 09:06:46;;;;;;;7.2;11.1;;;;;;;2;65.6;100590;;;;
2022/02/12 09:16:45;;;;;;;6.4;9.2;;;;;;;2.2;63.2;100600;;;;
2022/02/12 09:26:45;;;;;;;6.4;9.2;;;;;;;2.5;62.5;100610;;;;
2022/02/12 09:36:45;;;;;;;6.4;9.2;;;;;;;2.4;60.1;100620;;;;
2022/02/12 09:47:46;;;;;;;6.4;9;;;;;;;2.6;60.6;100620;;;;
2022/02/12 09:57:51;;;;;;;6.4;9;;;;;;;3;60;100620;;;;
2022/02/12 10:07:50;;;;;;;6.4;9;;;;;;;3.2;58.7;100600;;;;
2022/02/12 10:18:50;;;;;;;6.5;12.3;;;;;;;3.5;57.9;100600;;;;
2022/02/12 10:29:51;;;;;;;6.5;12.3;;;;;;;3.9;57.3;100600;;;;
2022/02/12 10:40:50;;;;;;;6.5;12.3;;;;;;;4;53.5;100590;;;;
2022/02/12 10:50:50;;;;;;;5.9;11.5;;;;;;;4.3;50.5;100590;;;;
2022/02/12 11:01:51;;;;;;;5.9;11.5;;;;;;;4.7;51.8;100590;;;;
2022/02/12 11:12:50;;;;;;;5.9;11.5;;;;;;;5;51.1;100580;;;;
2022/02/12 11:22:55;;;;;;;4.6;6.9;;;;;;;5;51.1;100570;;;;
2022/02/12 11:32:50;;;;;;;4.6;6.9;;;;;;;4.6;49.9;100550;;;;
2022/02/12 11:42:50;;;;;;;4.6;6.9;;;;;;;4.5;47.1;100560;;;;
2022/02/12 11:53:54;;;;;;;4.1;9.5;;;;;;;4.6;47.6;100550;;;;
2022/02/12 12:04:51;;;;;;;4.1;9.5;;;;;;;4.6;47.1;100540;;;;
2022/02/12 12:14:50;;;;;;;4.1;9.5;;;;;;;4.8;46;100550;;;;
2022/02/12 12:24:50;;;;;;;3.4;5.9;;;;;;;5;47.1;100530;;;;
2022/02/12 12:35:51;;;;;;;3.4;5.9;;;;;;;4.9;46.3;100520;;;;
2022/02/12 12:45:50;;;;;;;4;6.5;;;;;;;5.1;48.3;100500;;;;
2022/02/12 12:56:50;;;;;;;4;6.5;;;;;;;5.4;46.3;100470;;;;
2022/02/12 13:06:51;;;;;;;4;6.5;;;;;;;5.6;45.2;100460;;;;
2022/02/12 13:17:50;;;;;;;4.2;10.6;;;;;;;5.4;42.7;100450;;;;
2022/02/12 13:27:51;;;;;;;4.2;10.6;;;;;;;5.5;43.2;100470;;;;
2022/02/12 13:38:51;;;;;;;4.2;10.6;;;;;;;5.4;42.6;100450;;;;
2022/02/12 13:48:51;;;;;;;3.1;6.1;;;;;;;5.3;42.3;100450;;;;
2022/02/12 16:36:51;;;;;;;18.1;25.5;;;;;;;0.4;56.5;100320;;;;
2022/02/12 16:47:51;;;;;;;27.1;31.9;;;;;;;0.1;57.1;100320;;;;
2022/02/12 16:57:51;;;;;;;27.1;31.9;;;;;;;-0.2;57.9;100320;;;;
2022/02/12 17:07:51;;;;;;;27.1;31.9;;;;;;;-0.4;58.3;100310;;;;
2022/02/12 17:18:51;;;;;;;34.7;43.4;;;;;;;-0.8;58.9;100320;;;;
2022/02/12 17:28:51;;;;;;;34.7;43.4;;;;;;;-1;59.4;100330;;;;
2022/02/12 17:39:51;;;;;;;34.7;43.4;;;;;;;-1.2;60.6;100320;;;;
2022/02/12 17:49:51;;;;;;;32.9;42.3;;;;;;;-1.4;60.5;100310;;;;
2022/02/12 18:00:51;;;;;;;32.9;42.3;;;;;;;-1.5;61.6;100320;;;;
2022/02/12 18:10:51;;;;;;;32.9;42.3;;;;;;;-1.4;61.8;100290;;;;
2022/02/12 18:21:51;;;;;;;39.7;48.4;;;;;;;-1.5;61.7;100290;;;;
2022/02/12 18:31:51;;;;;;;39.7;48.4;;;;;;;-1.7;62.2;100300;;;;
2022/02/12 18:42:51;;;;;;;39.7;48.4;;;;;;;-2;62.4;100280;;;;
2022/02/12 18:53:51;;;;;;;32.9;39.5;;;;;;;-2.2;63;100280;;;;
2022/02/12 19:04:51;;;;;;;32.9;39.5;;;;;;;-2.5;64;100280;;;;
2022/02/12 19:15:51;;;;;;;57.3;76.1;;;;;;;-2.7;64.7;100270;;;;
2022/02/12 19:26:51;;;;;;;57.3;76.1;;;;;;;-2.7;66.3;100260;;;;
2022/02/12 19:37:52;;;;;;;57.3;76.1;;;;;;;-2.2;65.1;100260;;;;
2022/02/12 19:47:51;;;;;;;39.4;53.8;;;;;;;-1.9;63.3;100250;;;;
2022/02/12 19:58:51;;;;;;;39.4;53.8;;;;;;;-1.8;62.8;100230;;;;
2022/02/12 20:09:51;;;;;;;39.4;53.8;;;;;;;-2;62.2;100220;;;;
2022/02/12 20:20:51;;;;;;;44.3;54.8;;;;;;;-2.4;64.3;100220;;;;
2022/02/12 20:31:51;;;;;;;44.3;54.8;;;;;;;-2.8;64.9;100200;;;;
2022/02/12 20:41:51;;;;;;;44.3;54.8;;;;;;;-2.9;65;100190;;;;
2022/02/12 20:52:51;;;;;;;50.7;65.5;;;;;;;-3.1;65.5;100180;;;;
2022/02/12 21:03:53;;;;;;;50.7;65.5;;;;;;;-3.3;66.5;100170;;;;
2022/02/12 21:13:51;;;;;;;57.8;81;;;;;;;-3.4;66.9;100160;;;;
2022/02/12 21:23:51;;;;;;;57.8;81;;;;;;;-3.6;67.1;100160;;;;
2022/02/12 21:34:51;;;;;;;57.8;81;;;;;;;-3.7;67.6;100150;;;;
2022/02/12 21:45:51;;;;;;;96.9;138.3;;;;;;;-3.9;68.2;100150;;;;
2022/02/12 21:56:51;;;;;;;96.9;138.3;;;;;;;-4.1;68.6;100130;;;;
2022/02/12 22:06:51;;;;;;;96.9;138.3;;;;;;;-4.2;70.3;100130;;;;
2022/02/12 22:17:51;;;;;;;59;81.1;;;;;;;-4.4;70.5;100130;;;;
2022/02/12 22:27:51;;;;;;;59;81.1;;;;;;;-4.5;71.1;100110;;;;
2022/02/12 22:37:51;;;;;;;59;81.1;;;;;;;-4.6;71.7;100110;;;;
2022/02/12 22:47:53;;;;;;;74.2;105.4;;;;;;;-4.6;74.7;100100;;;;
2022/02/12 22:57:51;;;;;;;74.2;105.4;;;;;;;-4.7;75;100100;;;;
2022/02/12 23:08:54;;;;;;;74.2;105.4;;;;;;;-4.7;74.2;100100;;;;
2022/02/12 23:19:51;;;;;;;72.3;101.5;;;;;;;-4.8;74.4;100100;;;;
2022/02/12 23:30:51;;;;;;;72.3;101.5;;;;;;;-4.9;75.2;100090;;;;
2022/02/12 23:40:51;;;;;;;72.3;101.5;;;;;;;-5.2;74.8;100080;;;;
2022/02/12 23:50:52;;;;;;;76.1;107.3;;;;;;;-5.2;75.8;100070;;;;
